createdAt,value
2023-02-12T00:01:28.908Z,56.97
2023-02-12T00:03:56.376Z,56.80
2023-02-12T00:06:24.228Z,56.86
2023-02-12T00:08:53.558Z,56.78
2023-02-12T00:11:29.958Z,57.04
2023-02-12T00:13:58.320Z,58.12
2023-02-12T00:16:29.082Z,57.18
2023-02-12T00:18:58.120Z,57.13
2023-02-12T00:21:25.551Z,57.22
2023-02-12T00:23:52.581Z,56.64
2023-02-12T00:26:21.403Z,56.80
2023-02-12T00:28:56.153Z,56.99
2023-02-12T00:31:29.808Z,56.64
2023-02-12T00:33:58.558Z,56.53
2023-02-12T00:36:29.230Z,55.98
2023-02-12T00:38:57.433Z,56.42
2023-02-12T00:41:25.995Z,56.32
2023-02-12T00:43:53.144Z,56.51
2023-02-12T00:46:21.070Z,55.81
2023-02-12T00:48:48.060Z,56.20
2023-02-12T00:51:16.922Z,55.78
2023-02-12T00:53:44.141Z,55.98
2023-02-12T00:56:13.616Z,56.13
2023-02-12T00:58:40.736Z,55.93
2023-02-12T01:01:08.206Z,55.85
2023-02-12T01:03:36.146Z,56.72
2023-02-12T01:06:03.271Z,56.37
2023-02-12T01:08:30.421Z,56.41
2023-02-12T01:11:00.962Z,57.02
2023-02-12T01:13:30.615Z,56.89
2023-02-12T01:16:16.663Z,57.17
2023-02-12T01:18:45.186Z,56.79
2023-02-12T01:21:21.263Z,57.22
2023-02-12T01:23:49.448Z,56.88
2023-02-12T01:26:21.120Z,56.89
2023-02-12T01:28:57.017Z,58.02
2023-02-12T01:31:27.067Z,57.14
2023-02-12T01:33:56.687Z,56.92
2023-02-12T01:36:24.686Z,57.43
2023-02-12T01:38:52.094Z,57.43
2023-02-12T01:41:22.144Z,56.90
2023-02-12T01:44:26.048Z,57.67
2023-02-12T01:47:01.656Z,57.08
2023-02-12T01:49:28.589Z,57.42
2023-02-12T01:52:08.970Z,57.35
2023-02-12T01:54:38.062Z,56.82
2023-02-12T01:57:07.125Z,57.01
2023-02-12T01:59:36.770Z,56.92
2023-02-12T02:02:05.841Z,56.99
2023-02-12T02:04:40.428Z,57.41
2023-02-12T02:07:09.809Z,57.11
2023-02-12T02:09:39.476Z,56.82
2023-02-12T02:12:26.382Z,57.39
2023-02-12T02:15:00.216Z,56.89
2023-02-12T02:17:38.654Z,56.86
2023-02-12T02:20:43.102Z,57.49
2023-02-12T02:23:40.891Z,57.52
2023-02-12T02:26:32.176Z,56.93
2023-02-12T02:29:17.682Z,57.37
2023-02-12T02:31:50.924Z,57.37
2023-02-12T02:34:21.589Z,57.35
2023-02-12T02:37:07.255Z,57.50
2023-02-12T02:39:39.347Z,57.64
2023-02-12T02:42:24.449Z,57.26
2023-02-12T02:44:54.131Z,58.23
2023-02-12T02:47:46.718Z,57.32
2023-02-12T02:50:18.263Z,57.05
2023-02-12T02:52:51.327Z,58.26
2023-02-12T02:55:27.488Z,58.40
2023-02-12T02:57:57.372Z,58.32
2023-02-12T03:00:37.393Z,57.79
2023-02-12T03:03:51.458Z,58.86
2023-02-12T03:06:46.499Z,59.70
2023-02-12T03:09:31.614Z,58.83
2023-02-12T03:12:06.155Z,58.85
2023-02-12T03:14:36.900Z,59.56
2023-02-12T03:17:34.826Z,59.04
2023-02-12T03:20:13.051Z,59.07
2023-02-12T03:22:47.144Z,58.42
2023-02-12T03:25:20.689Z,58.76
2023-02-12T03:28:00.937Z,58.84
2023-02-12T03:30:42.109Z,58.88
2023-02-12T03:33:39.154Z,59.50
2023-02-12T03:36:43.601Z,59.25
2023-02-12T03:39:29.736Z,59.08
2023-02-12T03:42:06.307Z,58.96
2023-02-12T03:44:51.878Z,59.84
2023-02-12T03:47:39.725Z,59.96
2023-02-12T03:50:21.502Z,59.70
2023-02-12T03:52:53.054Z,59.51
2023-02-12T03:55:20.682Z,59.28
2023-02-12T03:58:07.680Z,59.76
2023-02-12T04:00:43.321Z,59.35
2023-02-12T04:03:10.337Z,59.27
2023-02-12T04:05:38.289Z,59.78
2023-02-12T04:08:09.111Z,59.86
2023-02-12T04:11:15.886Z,59.70
2023-02-12T04:13:53.840Z,59.34
2023-02-12T04:16:33.202Z,59.41
2023-02-12T04:19:09.613Z,59.30
2023-02-12T04:22:08.582Z,59.68
2023-02-12T04:24:46.944Z,60.01
2023-02-12T04:27:34.716Z,59.49
2023-02-12T04:30:19.826Z,59.53
2023-02-12T04:32:53.060Z,59.49
2023-02-12T04:35:35.519Z,59.20
2023-02-12T04:38:14.068Z,59.67
2023-02-12T04:40:42.381Z,59.36
2023-02-12T04:43:15.493Z,59.05
2023-02-12T04:45:45.746Z,59.68
2023-02-12T04:48:16.546Z,59.15
2023-02-12T04:50:45.304Z,59.28
2023-02-12T04:53:12.761Z,59.04
2023-02-12T04:55:39.743Z,58.94
2023-02-12T04:58:07.497Z,58.89
2023-02-12T05:00:37.971Z,58.71
2023-02-12T05:03:07.071Z,58.46
2023-02-12T05:05:34.317Z,59.18
2023-02-12T05:08:02.115Z,58.48
2023-02-12T05:10:29.126Z,58.71
2023-02-12T05:13:01.591Z,58.69
2023-02-12T05:15:28.735Z,58.87
2023-02-12T05:18:00.925Z,58.82
2023-02-12T05:20:28.018Z,58.79
2023-02-12T05:22:58.310Z,59.02
2023-02-12T05:25:25.233Z,59.20
2023-02-12T05:27:57.470Z,58.89
2023-02-12T05:30:24.891Z,59.07
2023-02-12T05:32:52.506Z,59.32
2023-02-12T05:35:19.699Z,60.04
2023-02-12T05:37:46.566Z,59.75
2023-02-12T05:40:19.494Z,59.59
2023-02-12T05:42:49.250Z,59.67
2023-02-12T05:45:19.265Z,59.73
2023-02-12T05:47:46.510Z,59.72
2023-02-12T05:50:13.431Z,59.44
2023-02-12T05:52:44.265Z,59.63
2023-02-12T05:55:14.735Z,60.63
2023-02-12T05:57:43.989Z,60.14
2023-02-12T06:00:13.684Z,59.90
2023-02-12T06:02:40.785Z,59.89
2023-02-12T06:05:10.083Z,59.81
2023-02-12T06:07:39.494Z,60.55
2023-02-12T06:10:10.165Z,61.43
2023-02-12T06:12:46.389Z,59.93
2023-02-12T06:15:19.881Z,60.58
2023-02-12T06:17:46.929Z,60.04
2023-02-12T06:20:17.054Z,59.87
2023-02-12T06:22:48.563Z,60.21
2023-02-12T06:25:15.911Z,60.01
2023-02-12T06:27:43.088Z,60.40
2023-02-12T06:30:10.900Z,60.10
2023-02-12T06:32:38.015Z,60.21
2023-02-12T06:35:07.512Z,60.26
2023-02-12T06:37:37.240Z,60.29
2023-02-12T06:40:06.089Z,60.58
2023-02-12T06:42:33.254Z,60.15
2023-02-12T06:45:03.863Z,60.19
2023-02-12T06:47:33.265Z,60.01
2023-02-12T06:50:03.301Z,60.23
2023-02-12T06:52:33.047Z,59.90
2023-02-12T06:54:59.919Z,59.87
2023-02-12T06:57:26.907Z,59.80
2023-02-12T06:59:56.620Z,59.43
2023-02-12T07:02:26.091Z,58.86
2023-02-12T07:04:57.770Z,57.92
2023-02-12T07:07:28.020Z,57.00
2023-02-12T07:09:55.159Z,56.01
2023-02-12T07:12:22.351Z,54.61
2023-02-12T07:14:49.338Z,53.71
2023-02-12T07:17:16.210Z,52.49
2023-02-12T07:19:43.467Z,50.94
2023-02-12T07:22:10.600Z,50.12
2023-02-12T07:24:40.013Z,48.94
2023-02-12T07:27:07.059Z,47.72
2023-02-12T07:29:34.147Z,46.37
2023-02-12T07:32:09.126Z,44.32
2023-02-12T07:34:39.056Z,43.68
2023-02-12T07:37:07.606Z,43.66
2023-02-12T07:39:36.692Z,42.57
2023-02-12T07:42:03.779Z,41.26
2023-02-12T07:44:32.511Z,40.89
2023-02-12T07:47:03.006Z,39.93
2023-02-12T07:49:32.889Z,39.16
2023-02-12T07:51:59.956Z,38.75
2023-02-12T07:54:26.959Z,36.91
2023-02-12T07:56:54.133Z,36.87
2023-02-12T07:59:21.535Z,36.11
2023-02-12T08:01:51.036Z,35.34
2023-02-12T08:04:22.316Z,34.12
2023-02-12T08:06:51.166Z,33.85
2023-02-12T08:09:27.944Z,32.97
2023-02-12T08:11:58.179Z,31.98
2023-02-12T08:14:29.745Z,31.45
2023-02-12T08:16:57.023Z,30.83
2023-02-12T08:19:26.984Z,30.05
2023-02-12T08:21:56.111Z,28.99
2023-02-12T08:24:23.777Z,28.09
2023-02-12T08:26:51.188Z,28.92
2023-02-12T08:29:33.186Z,27.01
2023-02-12T08:32:09.202Z,27.43
2023-02-12T08:34:38.395Z,26.06
2023-02-12T08:37:06.885Z,25.64
2023-02-12T08:39:39.836Z,24.73
2023-02-12T08:42:09.786Z,24.50
2023-02-12T08:44:38.150Z,24.43
2023-02-12T08:47:06.941Z,23.90
2023-02-12T08:49:38.448Z,23.93
2023-02-12T08:52:08.377Z,23.45
2023-02-12T08:54:35.604Z,22.81
2023-02-12T08:57:03.831Z,22.30
2023-02-12T08:59:32.999Z,22.04
2023-02-12T09:02:08.723Z,21.98
2023-02-12T09:04:36.205Z,21.60
2023-02-12T09:07:03.086Z,22.78
2023-02-12T09:09:33.454Z,22.51
2023-02-12T09:12:00.490Z,22.22
2023-02-12T09:14:27.494Z,21.56
2023-02-12T09:16:55.305Z,21.38
2023-02-12T09:19:22.525Z,20.12
2023-02-12T09:21:56.307Z,19.82
2023-02-12T09:24:25.166Z,19.45
2023-02-12T09:26:52.219Z,19.09
2023-02-12T09:29:22.240Z,19.48
2023-02-12T09:31:49.475Z,18.78
2023-02-12T09:34:16.951Z,19.02
2023-02-12T09:36:46.129Z,17.38
2023-02-12T09:39:13.168Z,18.19
2023-02-12T09:42:03.330Z,17.95
2023-02-12T09:44:53.517Z,17.56
2023-02-12T09:47:54.222Z,17.45
2023-02-12T09:50:37.886Z,17.54
2023-02-12T09:53:13.667Z,17.09
2023-02-12T09:55:41.000Z,16.57
2023-02-12T09:58:16.866Z,16.77
2023-02-12T10:00:44.749Z,17.04
2023-02-12T10:03:21.280Z,16.60
2023-02-12T10:05:54.381Z,15.94
2023-02-12T10:08:46.713Z,15.62
2023-02-12T10:11:30.414Z,15.44
2023-02-12T10:14:19.846Z,16.29
2023-02-12T10:16:55.806Z,15.08
2023-02-12T10:19:37.046Z,15.25
2023-02-12T10:22:31.212Z,14.26
2023-02-12T10:25:21.798Z,14.96
2023-02-12T10:27:54.927Z,14.32
2023-02-12T10:30:27.450Z,15.00
2023-02-12T10:33:03.586Z,14.07
2023-02-12T10:35:32.527Z,14.57
2023-02-12T10:38:16.517Z,15.26
2023-02-12T10:40:45.038Z,14.60
2023-02-12T10:43:13.928Z,14.87
2023-02-12T10:45:43.536Z,15.19
2023-02-12T10:48:15.902Z,14.28
2023-02-12T10:51:09.255Z,14.24
2023-02-12T10:53:40.269Z,14.25
2023-02-12T10:56:13.849Z,14.76
2023-02-12T10:59:02.242Z,13.76
2023-02-12T11:01:31.826Z,14.22
2023-02-12T11:04:18.906Z,14.69
2023-02-12T11:06:59.772Z,14.04
2023-02-12T11:09:35.226Z,15.63
2023-02-12T11:12:03.813Z,16.35
2023-02-12T11:14:31.181Z,18.41
2023-02-12T11:17:01.581Z,18.49
2023-02-12T11:19:32.581Z,18.74
2023-02-12T11:22:18.838Z,19.07
2023-02-12T11:24:47.710Z,20.15
2023-02-12T11:27:26.173Z,19.76
2023-02-12T11:30:12.882Z,20.37
2023-02-12T11:32:39.890Z,21.38
2023-02-12T11:35:35.294Z,22.73
2023-02-12T11:38:03.632Z,25.17
2023-02-12T11:40:36.039Z,25.96
2023-02-12T11:43:07.022Z,27.75
2023-02-12T11:45:48.103Z,30.18
2023-02-12T11:48:22.883Z,31.21
2023-02-12T11:50:53.669Z,31.16
2023-02-12T11:53:25.499Z,31.68
2023-02-12T11:55:59.189Z,31.35
2023-02-12T11:58:28.195Z,30.88
2023-02-12T12:01:08.050Z,31.12
2023-02-12T12:03:44.092Z,31.49
2023-02-12T12:06:20.052Z,31.64
2023-02-12T12:09:07.139Z,31.54
2023-02-12T12:11:52.208Z,34.28
2023-02-12T12:14:29.763Z,36.35
2023-02-12T12:17:29.157Z,37.22
2023-02-12T12:20:10.599Z,37.17
2023-02-12T12:22:55.905Z,37.15
2023-02-12T12:25:26.540Z,36.63
2023-02-12T12:28:49.108Z,37.63
2023-02-12T12:31:22.526Z,38.44
2023-02-12T12:33:49.699Z,38.46
2023-02-12T12:36:33.107Z,39.97
2023-02-12T12:39:14.787Z,38.99
2023-02-12T12:41:51.287Z,39.82
2023-02-12T12:44:39.986Z,39.31
2023-02-12T12:47:36.478Z,41.00
2023-02-12T12:50:26.421Z,40.49
2023-02-12T12:53:19.989Z,40.51
2023-02-12T12:56:11.421Z,41.69
2023-02-12T12:58:47.943Z,41.09
2023-02-12T13:01:14.809Z,39.75
2023-02-12T13:04:32.496Z,41.83
2023-02-12T13:07:14.225Z,41.68
2023-02-12T13:09:54.662Z,40.85
2023-02-12T13:12:24.056Z,40.62
2023-02-12T13:15:34.239Z,40.53
2023-02-12T13:18:14.884Z,40.74
2023-02-12T13:21:03.339Z,40.97
2023-02-12T13:23:51.895Z,41.26
2023-02-12T13:26:24.422Z,40.58
2023-02-12T13:28:55.582Z,40.62
2023-02-12T13:31:33.048Z,40.15
2023-02-12T13:34:07.650Z,40.40
2023-02-12T13:36:37.882Z,40.68
2023-02-12T13:39:27.412Z,41.09
2023-02-12T13:42:07.647Z,41.50
2023-02-12T13:44:38.226Z,41.16
2023-02-12T13:47:11.195Z,41.67
2023-02-12T13:50:01.309Z,41.12
2023-02-12T13:52:39.897Z,41.31
2023-02-12T13:55:19.043Z,41.52
2023-02-12T13:57:46.055Z,41.28
2023-02-12T14:00:47.707Z,41.58
2023-02-12T14:03:15.081Z,41.28
2023-02-12T14:05:42.844Z,40.65
2023-02-12T14:08:35.222Z,41.35
2023-02-12T14:11:09.337Z,42.31
2023-02-12T14:13:50.886Z,42.59
2023-02-12T14:16:29.668Z,42.15
2023-02-12T14:19:35.582Z,41.31
2023-02-12T14:22:12.230Z,41.03
2023-02-12T14:24:39.110Z,41.16
2023-02-12T14:27:27.265Z,41.27
2023-02-12T14:30:03.302Z,40.87
2023-02-12T14:32:45.084Z,40.71
2023-02-12T14:35:29.808Z,40.47
2023-02-12T14:38:16.631Z,40.65
2023-02-12T14:40:47.218Z,40.46
2023-02-12T14:43:59.009Z,40.82
2023-02-12T14:46:26.271Z,40.59
2023-02-12T14:49:06.054Z,41.05
2023-02-12T14:51:46.778Z,41.24
2023-02-12T14:54:19.429Z,41.07
2023-02-12T14:56:49.234Z,41.26
2023-02-12T14:59:21.703Z,41.44
2023-02-12T15:01:50.855Z,41.26
2023-02-12T15:04:30.982Z,41.81
2023-02-12T15:07:08.678Z,42.02
2023-02-12T15:09:41.768Z,41.85
2023-02-12T15:12:20.490Z,41.87
2023-02-12T15:15:01.387Z,42.39
2023-02-12T15:17:32.647Z,42.18
2023-02-12T15:20:06.213Z,42.17
2023-02-12T15:22:40.079Z,42.55
2023-02-12T15:25:26.948Z,42.92
2023-02-12T15:28:01.978Z,43.14
2023-02-12T15:30:35.704Z,44.46
2023-02-12T15:33:07.482Z,43.32
2023-02-12T15:35:40.074Z,43.52
2023-02-12T15:38:08.189Z,43.00
2023-02-12T15:40:38.882Z,43.17
2023-02-12T15:43:16.940Z,43.35
2023-02-12T15:45:51.692Z,43.39
2023-02-12T15:48:19.618Z,44.27
2023-02-12T15:50:54.635Z,44.38
2023-02-12T15:53:24.707Z,43.98
2023-02-12T15:55:52.770Z,43.88
2023-02-12T15:58:27.133Z,44.38
2023-02-12T16:00:59.555Z,44.08
2023-02-12T16:03:37.915Z,44.73
2023-02-12T16:06:14.237Z,45.41
2023-02-12T16:08:47.529Z,45.34
2023-02-12T16:11:20.012Z,45.64
2023-02-12T16:13:54.170Z,46.41
2023-02-12T16:16:30.262Z,45.80
2023-02-12T16:19:23.119Z,46.70
2023-02-12T16:21:56.081Z,46.03
2023-02-12T16:24:28.280Z,46.36
2023-02-12T16:26:56.715Z,46.23
2023-02-12T16:29:24.569Z,46.50
2023-02-12T16:32:01.500Z,47.22
2023-02-12T16:34:37.977Z,47.39
2023-02-12T16:38:02.081Z,47.01
2023-02-12T16:40:31.163Z,46.61
2023-02-12T16:43:02.309Z,47.39
2023-02-12T16:45:32.416Z,47.69
2023-02-12T16:48:08.692Z,48.33
2023-02-12T16:50:39.527Z,48.05
2023-02-12T16:53:09.066Z,47.86
2023-02-12T16:55:36.873Z,47.75
2023-02-12T16:58:03.869Z,47.86
2023-02-12T17:00:30.924Z,47.68
2023-02-12T17:02:58.108Z,48.04
2023-02-12T17:05:25.023Z,47.69
2023-02-12T17:07:52.007Z,47.69
2023-02-12T17:10:19.238Z,47.86
2023-02-12T17:12:52.481Z,47.55
2023-02-12T17:15:30.723Z,48.06
2023-02-12T17:17:57.804Z,47.89
2023-02-12T17:20:24.763Z,47.53
2023-02-12T17:22:55.521Z,47.64
2023-02-12T17:25:22.691Z,48.14
2023-02-12T17:27:49.525Z,47.99
2023-02-12T17:30:18.724Z,48.00
2023-02-12T17:32:45.607Z,47.70
2023-02-12T17:35:12.539Z,48.06
2023-02-12T17:37:39.567Z,48.26
2023-02-12T17:40:07.349Z,48.14
2023-02-12T17:42:34.289Z,48.51
2023-02-12T17:45:01.249Z,48.25
2023-02-12T17:47:28.180Z,48.98
2023-02-12T17:49:55.152Z,48.92
2023-02-12T17:52:22.082Z,49.00
2023-02-12T17:54:49.006Z,48.78
2023-02-12T17:57:15.937Z,49.34
2023-02-12T17:59:43.043Z,49.27
2023-02-12T18:02:12.343Z,49.50
2023-02-12T18:04:39.367Z,49.68
2023-02-12T18:07:06.420Z,49.78
2023-02-12T18:09:33.387Z,49.68
2023-02-12T18:12:00.353Z,49.47
2023-02-12T18:14:27.286Z,49.96
2023-02-12T18:16:54.623Z,49.44
2023-02-12T18:19:21.721Z,49.24
2023-02-12T18:21:48.681Z,50.57
2023-02-12T18:24:15.748Z,49.81
2023-02-12T18:26:42.860Z,50.83
2023-02-12T18:29:10.317Z,50.32
2023-02-12T18:31:37.671Z,50.91
2023-02-12T18:34:06.271Z,50.28
2023-02-12T18:36:33.699Z,51.19
2023-02-12T18:39:01.233Z,50.88
2023-02-12T18:41:31.716Z,51.11
2023-02-12T18:43:59.691Z,50.75
2023-02-12T18:46:31.928Z,51.79
2023-02-12T18:48:59.744Z,51.35
2023-02-12T18:51:38.178Z,50.82
2023-02-12T18:54:09.134Z,51.14
2023-02-12T18:56:41.127Z,51.48
2023-02-12T18:59:08.673Z,50.97
2023-02-12T19:01:36.497Z,51.22
2023-02-12T19:04:05.806Z,51.14
2023-02-12T19:06:34.594Z,50.93
2023-02-12T19:09:03.967Z,50.53
2023-02-12T19:11:31.575Z,50.79
2023-02-12T19:13:58.824Z,50.45
2023-02-12T19:16:26.278Z,50.42
2023-02-12T19:18:55.380Z,50.77
2023-02-12T19:21:26.282Z,50.23
2023-02-12T19:23:55.089Z,50.30
2023-02-12T19:26:23.193Z,50.10
2023-02-12T19:28:50.623Z,50.43
2023-02-12T19:31:23.494Z,51.01
2023-02-12T19:33:58.874Z,50.96
2023-02-12T19:36:29.255Z,50.73
2023-02-12T19:38:56.346Z,51.04
2023-02-12T19:41:25.812Z,50.75
2023-02-12T19:43:55.914Z,50.81
2023-02-12T19:46:23.201Z,50.76
2023-02-12T19:48:54.119Z,51.15
2023-02-12T19:51:22.282Z,50.93
2023-02-12T19:53:49.276Z,50.75
2023-02-12T19:56:16.580Z,51.08
2023-02-12T19:58:44.547Z,51.32
2023-02-12T20:01:16.599Z,52.13
2023-02-12T20:03:44.225Z,51.44
2023-02-12T20:06:15.154Z,51.57
2023-02-12T20:08:45.266Z,51.80
2023-02-12T20:11:16.859Z,52.31
2023-02-12T20:13:44.860Z,52.26
2023-02-12T20:16:16.230Z,52.75
2023-02-12T20:18:45.956Z,52.54
2023-02-12T20:21:17.095Z,52.32
2023-02-12T20:23:44.103Z,52.50
2023-02-12T20:26:14.402Z,52.05
2023-02-12T20:28:44.867Z,52.35
2023-02-12T20:31:33.880Z,52.43
2023-02-12T20:34:04.558Z,52.17
2023-02-12T20:36:37.359Z,52.58
2023-02-12T20:39:07.017Z,52.24
2023-02-12T20:41:37.369Z,53.21
2023-02-12T20:44:06.543Z,53.07
2023-02-12T20:46:40.028Z,53.28
2023-02-12T20:49:10.176Z,52.57
2023-02-12T20:51:37.935Z,53.13
2023-02-12T20:54:05.261Z,53.22
2023-02-12T20:56:37.354Z,53.15
2023-02-12T20:59:11.347Z,52.71
2023-02-12T21:01:40.390Z,52.91
2023-02-12T21:04:18.946Z,53.75
2023-02-12T21:06:47.467Z,53.44
2023-02-12T21:09:15.416Z,52.96
2023-02-12T21:11:46.591Z,53.13
2023-02-12T21:14:24.187Z,53.76
2023-02-12T21:16:54.191Z,53.93
2023-02-12T21:19:21.372Z,54.02
2023-02-12T21:21:53.077Z,53.91
2023-02-12T21:24:24.542Z,54.02
2023-02-12T21:26:54.517Z,55.01
2023-02-12T21:29:34.049Z,55.04
2023-02-12T21:32:02.115Z,54.21
2023-02-12T21:34:30.115Z,54.69
2023-02-12T21:36:58.718Z,54.62
2023-02-12T21:39:28.784Z,54.29
2023-02-12T21:42:00.329Z,54.67
2023-02-12T21:44:28.197Z,53.95
2023-02-12T21:46:58.714Z,55.26
2023-02-12T21:49:28.071Z,55.13
2023-02-12T21:52:02.312Z,54.55
2023-02-12T21:54:30.642Z,54.64
2023-02-12T21:56:58.093Z,54.44
2023-02-12T21:59:27.767Z,55.28
2023-02-12T22:02:04.367Z,54.83
2023-02-12T22:04:31.523Z,54.70
2023-02-12T22:07:06.502Z,54.66
2023-02-12T22:09:37.538Z,54.86
2023-02-12T22:12:07.513Z,55.22
2023-02-12T22:14:37.325Z,55.75
2023-02-12T22:17:07.242Z,54.42
2023-02-12T22:19:34.808Z,54.46
2023-02-12T22:22:01.769Z,55.07
2023-02-12T22:24:31.053Z,54.78
2023-02-12T22:26:58.479Z,54.70
2023-02-12T22:29:25.932Z,54.94
2023-02-12T22:31:53.597Z,54.83
2023-02-12T22:34:20.654Z,55.08
2023-02-12T22:36:47.932Z,55.09
2023-02-12T22:39:18.014Z,54.91
2023-02-12T22:41:46.398Z,54.61
2023-02-12T22:44:15.017Z,54.61
2023-02-12T22:46:43.700Z,55.13
2023-02-12T22:49:15.571Z,55.05
2023-02-12T22:51:42.901Z,55.46
2023-02-12T22:54:18.102Z,55.74
2023-02-12T22:56:48.699Z,55.48
2023-02-12T22:59:18.644Z,55.44
2023-02-12T23:01:51.329Z,55.51
2023-02-12T23:04:24.605Z,56.00
2023-02-12T23:06:54.110Z,56.14
2023-02-12T23:09:22.259Z,56.24
2023-02-12T23:12:01.307Z,56.06
2023-02-12T23:14:31.248Z,55.95
2023-02-12T23:17:01.209Z,56.18
2023-02-12T23:19:37.788Z,56.26
2023-02-12T23:22:20.171Z,56.47
2023-02-12T23:24:47.287Z,56.73
2023-02-12T23:27:14.390Z,56.11
2023-02-12T23:29:44.239Z,56.73
2023-02-12T23:32:11.247Z,56.74
2023-02-12T23:34:43.409Z,56.54
2023-02-12T23:37:19.138Z,56.77
2023-02-12T23:39:48.734Z,56.30
2023-02-12T23:42:18.351Z,56.13
2023-02-12T23:44:47.938Z,56.12
2023-02-12T23:47:18.712Z,56.26
2023-02-12T23:49:45.712Z,56.75
2023-02-12T23:52:12.806Z,56.32
2023-02-12T23:54:42.705Z,56.69
2023-02-12T23:57:12.288Z,56.64
2023-02-12T23:59:40.031Z,56.69
